Time;durP1;ratioP1;P1;durP2;ratioP2;P2;SDS_P1;SDS_P2;PMS_P1;PMS_P2;Temp;Humidity;BMP_temperature;BMP_pressure;BME280_temperature;BME280_humidity;BME280_pressure;Samples;Min_cycle;Max_cycle;Signal;HPM_P1;HPM_P2
2021/11/02 00:00:37;;;;;;;12.57;4.70;;;9.90;80.70;;;;;;5097500;28;20180;-82
2021/11/02 00:03:04;;;;;;;11.85;5.35;;;10.00;80.70;;;;;;5097609;28;20530;-82
2021/11/02 00:05:31;;;;;;;9.13;4.70;;;9.80;80.60;;;;;;5097301;28;20184;-82
2021/11/02 00:07:57;;;;;;;15.18;5.85;;;9.80;81.10;;;;;;5099302;28;20164;-82
2021/11/02 00:10:23;;;;;;;12.95;5.40;;;9.60;81.10;;;;;;5097714;28;20187;-82
2021/11/02 00:12:49;;;;;;;16.55;6.75;;;9.60;81.80;;;;;;5106819;28;20297;-82
2021/11/02 00:15:21;;;;;;;17.42;6.10;;;9.70;82.00;;;;;;5099212;28;20663;-82
2021/11/02 00:17:50;;;;;;;12.63;5.43;;;9.80;82.10;;;;;;5098517;28;20175;-82
2021/11/02 00:20:16;;;;;;;13.82;5.38;;;9.70;82.10;;;;;;5096807;28;20176;-82
2021/11/02 00:22:51;;;;;;;14.57;5.28;;;9.70;82.40;;;;;;5097151;28;20199;-82
2021/11/02 00:25:17;;;;;;;12.80;5.53;;;9.80;82.30;;;;;;5097141;28;20203;-82
2021/11/02 00:27:43;;;;;;;10.77;4.57;;;10.00;81.90;;;;;;5096983;28;20175;-82
2021/11/02 00:30:12;;;;;;;11.73;4.90;;;10.10;81.70;;;;;;5097284;28;20179;-82
2021/11/02 00:32:39;;;;;;;11.20;5.03;;;10.00;82.20;;;;;;5096657;28;20560;-82
2021/11/02 00:35:10;;;;;;;23.73;5.82;;;9.90;81.60;;;;;;5097505;28;20221;-82
2021/11/02 00:37:36;;;;;;;13.50;4.45;;;10.10;81.50;;;;;;5096611;28;20184;-82
2021/11/02 00:40:03;;;;;;;15.93;4.30;;;10.00;81.30;;;;;;5096668;28;20657;-82
2021/11/02 00:42:37;;;;;;;12.00;4.35;;;9.90;81.10;;;;;;5080684;28;20176;-82
2021/11/02 00:45:08;;;;;;;15.25;5.20;;;9.90;81.20;;;;;;5096679;28;20196;-82
2021/11/02 00:47:34;;;;;;;8.98;4.30;;;9.80;81.00;;;;;;5096491;28;20167;-82
2021/11/02 00:50:02;;;;;;;7.03;4.00;;;9.90;81.20;;;;;;5096952;28;20263;-82
2021/11/02 00:52:31;;;;;;;11.48;5.70;;;9.90;81.20;;;;;;5097162;28;20956;-82
2021/11/02 00:54:56;;;;;;;14.48;5.63;;;9.80;81.20;;;;;;5095563;28;20204;-82
2021/11/02 00:57:23;;;;;;;12.20;4.82;;;9.80;81.40;;;;;;5097313;28;20245;-82
2021/11/02 00:59:49;;;;;;;16.88;5.85;;;9.90;82.10;;;;;;5096681;28;20314;-82
2021/11/02 01:02:18;;;;;;;8.90;4.45;;;9.80;80.80;;;;;;5095870;28;20301;-82
2021/11/02 01:04:47;;;;;;;12.70;5.30;;;9.80;81.10;;;;;;5096644;28;20785;-82
2021/11/02 01:07:13;;;;;;;12.95;4.70;;;9.60;81.40;;;;;;5096700;28;20203;-82
2021/11/02 01:09:39;;;;;;;21.23;6.47;;;9.60;81.80;;;;;;5097670;28;20159;-82
2021/11/02 01:12:05;;;;;;;10.77;4.80;;;9.50;82.10;;;;;;5096165;28;20183;-82
2021/11/02 01:14:30;;;;;;;14.13;5.85;;;9.50;82.30;;;;;;5085240;28;20933;-82
2021/11/02 01:16:56;;;;;;;10.70;6.00;;;9.50;82.40;;;;;;5075539;28;20312;-82
2021/11/02 01:19:22;;;;;;;11.57;5.37;;;9.40;82.30;;;;;;5077183;28;20251;-83
2021/11/02 01:21:48;;;;;;;11.80;6.00;;;9.40;82.80;;;;;;5075362;28;20177;-82
2021/11/02 01:24:14;;;;;;;12.53;5.17;;;9.40;82.90;;;;;;5075212;28;20196;-81
2021/11/02 01:26:40;;;;;;;12.53;5.40;;;9.40;82.80;;;;;;5075478;28;20422;-82
2021/11/02 01:29:05;;;;;;;14.87;5.87;;;9.50;82.70;;;;;;5075622;28;20560;-82
2021/11/02 01:31:31;;;;;;;11.10;6.17;;;9.60;82.70;;;;;;5076533;28;20512;-82
2021/11/02 01:33:57;;;;;;;14.07;5.40;;;9.60;82.50;;;;;;5075243;28;20702;-82
2021/11/02 01:36:23;;;;;;;11.70;6.00;;;9.50;82.50;;;;;;5076123;28;20205;-82
2021/11/02 01:38:49;;;;;;;12.47;5.13;;;9.40;82.50;;;;;;5074588;28;20226;-82
2021/11/02 01:41:18;;;;;;;12.15;5.63;;;9.50;82.80;;;;;;5074954;28;20248;-81
2021/11/02 01:43:45;;;;;;;16.58;5.65;;;9.40;82.70;;;;;;5073650;28;20199;-81
2021/11/02 01:46:35;;;;;;;13.98;5.50;;;9.60;83.10;;;;;;5073626;28;20202;-82
2021/11/02 01:49:03;;;;;;;12.50;5.57;;;9.40;82.70;;;;;;5073969;28;20161;-82
2021/11/02 01:51:30;;;;;;;15.50;5.15;;;9.50;82.70;;;;;;5074143;28;20177;-82
2021/11/02 01:53:57;;;;;;;11.20;5.53;;;9.30;82.60;;;;;;5077709;28;20204;-82
2021/11/02 01:56:23;;;;;;;14.27;5.22;;;9.40;82.80;;;;;;5080637;28;20197;-82
2021/11/02 01:58:53;;;;;;;14.57;6.13;;;9.20;83.00;;;;;;5081232;28;20667;-82
2021/11/02 02:01:33;;;;;;;11.27;5.57;;;9.10;83.10;;;;;;5081618;28;20234;-82
2021/11/02 02:04:07;;;;;;;14.55;5.90;;;9.10;83.50;;;;;;5080703;28;20547;-82
2021/11/02 02:06:38;;;;;;;11.25;5.10;;;8.90;83.70;;;;;;5084856;28;20235;-82
2021/11/02 02:09:34;;;;;;;22.02;6.18;;;8.90;84.10;;;;;;5082141;28;20157;-82
2021/11/02 02:12:19;;;;;;;13.43;5.40;;;9.00;84.30;;;;;;5065897;28;20192;-81
2021/11/02 02:14:49;;;;;;;13.35;6.40;;;9.20;84.30;;;;;;5118235;28;20206;-82
2021/11/02 02:17:19;;;;;;;13.15;5.15;;;9.20;84.00;;;;;;5119048;28;20207;-82
2021/11/02 02:20:07;;;;;;;18.52;6.40;;;9.30;83.80;;;;;;5120626;28;20163;-82
2021/11/02 02:23:08;;;;;;;13.00;6.35;;;9.30;83.30;;;;;;5120770;28;20163;-82
2021/11/02 02:25:49;;;;;;;15.82;6.55;;;9.30;83.00;;;;;;5109157;28;20277;-82
2021/11/02 02:28:30;;;;;;;17.02;7.47;;;9.30;83.00;;;;;;5120839;28;20159;-82
2021/11/02 02:31:01;;;;;;;10.27;5.28;;;9.30;83.00;;;;;;5119193;28;20174;-81
2021/11/02 02:33:39;;;;;;;16.02;7.13;;;9.20;82.70;;;;;;5119101;28;20206;-82
2021/11/02 02:36:05;;;;;;;10.15;5.00;;;9.20;82.60;;;;;;5120749;28;20684;-82
2021/11/02 02:38:35;;;;;;;10.53;5.93;;;9.30;82.60;;;;;;5120606;28;20180;-82
2021/11/02 02:41:02;;;;;;;11.60;5.10;;;9.20;82.40;;;;;;5119503;28;20413;-82
2021/11/02 02:43:29;;;;;;;27.60;7.00;;;9.30;82.30;;;;;;5119791;28;20195;-82
2021/11/02 02:45:58;;;;;;;11.93;5.95;;;9.20;82.00;;;;;;5119430;28;20182;-82
2021/11/02 02:48:24;;;;;;;11.63;5.47;;;9.20;81.90;;;;;;5119054;28;20179;-82
2021/11/02 02:50:52;;;;;;;12.30;6.00;;;9.30;82.00;;;;;;5119104;28;20182;-82
2021/11/02 02:53:19;;;;;;;17.27;7.45;;;9.30;81.90;;;;;;5119650;28;20224;-82
2021/11/02 02:55:46;;;;;;;12.27;7.25;;;9.30;81.90;;;;;;5119198;28;20208;-82
2021/11/02 02:58:13;;;;;;;15.10;6.85;;;9.10;81.80;;;;;;5120598;28;20171;-82
2021/11/02 03:00:41;;;;;;;12.80;7.78;;;9.10;81.90;;;;;;5119097;28;20178;-82
2021/11/02 03:03:09;;;;;;;9.77;6.95;;;9.10;82.00;;;;;;5118870;28;20646;-82
2021/11/02 03:05:35;;;;;;;13.48;6.93;;;9.20;82.00;;;;;;5119211;28;20269;-82
2021/11/02 03:08:02;;;;;;;11.65;7.43;;;9.20;81.80;;;;;;5119183;28;20179;-82
2021/11/02 03:10:28;;;;;;;12.07;7.50;;;9.10;81.90;;;;;;5120494;28;20171;-82
2021/11/02 03:12:57;;;;;;;10.70;7.40;;;9.10;82.10;;;;;;5109724;27;20282;-82
2021/11/02 03:15:52;;;;;;;10.60;7.68;;;9.20;82.00;;;;;;5081423;28;20551;-82
2021/11/02 03:18:39;;;;;;;11.18;7.60;;;9.10;81.90;;;;;;5098139;28;20212;-81
2021/11/02 03:52:06;;;;;;;5.85;4.45;;;8.90;84.30;;;;;;5100564;28;20176;-82
2021/11/02 03:57:21;;;;;;;8.43;5.78;;;8.90;84.20;;;;;;5100132;28;20609;-82
2021/11/02 04:00:15;;;;;;;7.82;5.10;;;9.00;84.10;;;;;;5099139;28;20183;-82
2021/11/02 04:37:05;;;;;;;20.38;5.90;;;8.90;85.10;;;;;;5124674;28;20205;-82
2021/11/02 04:45:14;;;;;;;9.27;5.93;;;8.70;86.90;;;;;;5133533;28;20187;-81
2021/11/02 05:49:57;;;;;;;22.10;9.70;;;8.60;90.10;;;;;;5080294;28;20160;-81
2021/11/02 05:55:10;;;;;;;21.00;9.17;;;8.60;90.80;;;;;;5079308;28;20275;-81
2021/11/02 06:00:20;;;;;;;17.88;8.68;;;8.80;91.00;;;;;;5079978;28;20161;-81
2021/11/02 06:28:10;;;;;;;19.10;10.77;;;8.90;91.10;;;;;;5120999;28;20162;-81
2021/11/02 06:33:25;;;;;;;22.88;11.88;;;9.20;91.20;;;;;;5120279;28;20575;-82
2021/11/02 06:38:46;;;;;;;30.35;12.07;;;9.00;90.90;;;;;;5121023;28;20171;-82
2021/11/02 06:47:06;;;;;;;23.23;10.75;;;9.10;90.80;;;;;;5131330;28;20185;-82
2021/11/02 07:25:28;;;;;;;22.05;11.20;;;9.60;90.60;;;;;;5083047;28;20189;-83
2021/11/02 08:47:04;;;;;;;25.27;13.50;;;10.40;88.30;;;;;;5103730;28;20187;-82
2021/11/02 08:49:06;;;;;;;20.85;12.70;;;10.50;88.40;;;;;;5103603;28;20188;-83
2021/11/02 08:51:33;;;;;;;22.55;11.60;;;10.40;87.90;;;;;;5114172;28;20194;-82
2021/11/02 08:53:59;;;;;;;36.38;14.15;;;10.50;87.90;;;;;;5088408;28;20210;-81
2021/11/02 08:56:25;;;;;;;24.97;12.87;;;10.50;87.70;;;;;;5101664;28;20697;-82
2021/11/02 08:58:53;;;;;;;24.60;13.67;;;10.40;87.60;;;;;;5100815;28;20406;-82
2021/11/02 09:01:23;;;;;;;28.27;13.60;;;10.50;87.90;;;;;;5100459;28;20422;-82
2021/11/02 09:03:59;;;;;;;23.58;12.80;;;10.60;87.90;;;;;;5098319;28;20192;-82
2021/11/02 09:06:27;;;;;;;30.05;13.63;;;10.80;88.10;;;;;;5065476;28;20175;-82
2021/11/02 09:08:55;;;;;;;21.33;12.27;;;10.80;88.20;;;;;;5097397;28;20226;-82
2021/11/02 09:11:23;;;;;;;21.75;13.50;;;10.80;87.70;;;;;;5099024;28;20231;-83
2021/11/02 09:13:51;;;;;;;14.00;10.40;;;10.60;87.40;;;;;;5116305;28;20561;-82
2021/11/02 09:16:18;;;;;;;14.82;10.75;;;10.60;87.60;;;;;;5119461;28;20606;-83
2021/11/02 09:18:48;;;;;;;18.67;12.30;;;10.50;87.90;;;;;;5118319;28;20239;-82
2021/11/02 09:21:15;;;;;;;21.05;13.90;;;10.60;88.00;;;;;;5120145;28;20171;-82
2021/11/02 09:23:43;;;;;;;28.75;14.90;;;10.60;88.20;;;;;;5117734;28;20199;-82
2021/11/02 09:26:09;;;;;;;27.48;12.50;;;10.60;88.40;;;;;;5111476;28;20172;-82
2021/11/02 09:28:35;;;;;;;18.33;10.30;;;10.90;88.70;;;;;;5099398;28;20237;-82
2021/11/02 09:31:04;;;;;;;17.23;10.73;;;11.00;88.50;;;;;;5099693;28;20172;-82
2021/11/02 09:33:31;;;;;;;18.90;11.25;;;10.90;88.20;;;;;;5081827;28;20438;-82
2021/11/02 09:36:09;;;;;;;14.95;10.63;;;10.80;87.70;;;;;;5098096;28;20210;-82
2021/11/02 09:38:46;;;;;;;18.83;10.35;;;10.70;87.80;;;;;;5099541;28;20166;-82
2021/11/02 09:41:33;;;;;;;13.13;9.32;;;10.80;87.90;;;;;;5098545;28;20254;-82
2021/11/02 09:44:04;;;;;;;29.50;15.40;;;11.00;88.20;;;;;;5097184;28;20726;-83
2021/11/02 09:46:39;;;;;;;21.30;11.65;;;11.00;88.20;;;;;;5098732;28;20179;-82
2021/11/02 09:49:53;;;;;;;24.20;10.00;;;11.30;88.10;;;;;;5099605;28;20179;-82
2021/11/02 09:52:40;;;;;;;13.98;8.88;;;11.40;87.80;;;;;;5025094;28;20190;-82
2021/11/02 09:55:34;;;;;;;9.52;8.40;;;11.40;87.30;;;;;;5102516;28;20260;-82
2021/11/02 09:58:11;;;;;;;11.13;8.95;;;11.30;87.10;;;;;;5107779;28;20191;-82
2021/11/02 10:00:45;;;;;;;11.57;8.30;;;11.20;86.50;;;;;;5098204;28;20179;-82
2021/11/02 10:03:48;;;;;;;7.68;6.85;;;11.10;86.20;;;;;;5097015;28;20187;-82
2021/11/02 10:06:39;;;;;;;10.95;8.07;;;10.80;85.60;;;;;;5097134;28;20229;-82
2021/11/02 10:09:30;;;;;;;8.23;7.13;;;10.60;86.20;;;;;;5097850;28;20222;-82
2021/11/02 10:12:17;;;;;;;35.90;12.30;;;10.60;85.70;;;;;;5100461;28;20701;-82
2021/11/02 10:15:07;;;;;;;17.05;6.88;;;10.70;85.90;;;;;;5117380;28;20209;-83
2021/11/02 10:17:39;;;;;;;10.25;7.50;;;10.80;86.00;;;;;;5117501;28;20669;-82
2021/11/02 10:20:05;;;;;;;13.65;7.38;;;10.70;86.00;;;;;;5117848;28;20240;-82
2021/11/02 10:22:55;;;;;;;11.90;8.17;;;10.90;86.20;;;;;;5118383;28;20201;-82
2021/11/02 10:25:45;;;;;;;18.95;9.45;;;10.80;86.00;;;;;;5118062;28;20201;-82
2021/11/02 10:28:27;;;;;;;13.13;8.30;;;10.80;86.10;;;;;;5122364;28;20179;-82
2021/11/02 10:31:01;;;;;;;13.07;8.35;;;10.70;86.10;;;;;;5124710;28;20723;-82
2021/11/02 10:33:33;;;;;;;14.73;9.30;;;10.80;86.30;;;;;;5132146;28;20191;-82
2021/11/02 10:36:17;;;;;;;12.82;8.65;;;10.80;86.40;;;;;;5129534;28;20228;-82
2021/11/02 10:39:06;;;;;;;82.53;19.48;;;10.90;86.80;;;;;;5128364;28;20170;-82
2021/11/02 10:41:35;;;;;;;12.30;8.88;;;11.30;86.60;;;;;;5119899;28;20163;-82
2021/11/02 10:44:24;;;;;;;14.18;8.23;;;11.50;86.30;;;;;;5119460;28;20560;-82
2021/11/02 10:47:07;;;;;;;12.20;7.13;;;11.50;85.60;;;;;;5119488;28;20241;-82
2021/11/02 10:49:52;;;;;;;9.48;7.72;;;11.30;85.00;;;;;;5114787;28;20186;-80
2021/11/02 10:52:27;;;;;;;10.18;7.65;;;11.30;84.90;;;;;;5086275;28;20179;-82
2021/11/02 10:55:08;;;;;;;11.43;8.85;;;11.10;84.70;;;;;;5100617;28;20207;-81
2021/11/02 10:57:39;;;;;;;17.27;8.68;;;11.20;85.00;;;;;;5100773;28;20206;-82
2021/11/02 11:00:10;;;;;;;12.45;9.38;;;11.40;85.20;;;;;;5101641;28;20243;-82
2021/11/02 11:02:37;;;;;;;12.43;8.82;;;11.50;85.30;;;;;;5104169;28;20194;-82
2021/11/02 11:05:06;;;;;;;10.27;7.75;;;11.40;85.10;;;;;;5102526;28;20203;-82
2021/11/02 11:07:53;;;;;;;14.70;8.75;;;11.30;85.00;;;;;;5081605;28;20177;-82
2021/11/02 11:10:23;;;;;;;13.02;9.73;;;11.20;85.00;;;;;;5078419;28;20253;-82
2021/11/02 11:12:52;;;;;;;13.10;9.90;;;11.10;84.90;;;;;;5105623;28;20227;-82
2021/11/02 11:15:18;;;;;;;13.85;9.50;;;11.30;85.00;;;;;;5116101;28;20211;-82
2021/11/02 11:17:55;;;;;;;15.20;10.45;;;11.10;84.30;;;;;;5118296;28;20211;-82
2021/11/02 11:20:23;;;;;;;18.40;11.68;;;11.10;84.00;;;;;;5123616;28;20174;-82
2021/11/02 11:22:51;;;;;;;14.30;11.40;;;11.20;83.70;;;;;;5123504;28;20171;-82
2021/11/02 11:25:20;;;;;;;12.60;10.25;;;11.20;83.30;;;;;;5120391;28;20207;-82
2021/11/02 11:27:55;;;;;;;17.25;11.27;;;11.20;82.90;;;;;;5120578;28;20212;-82
2021/11/02 11:30:32;;;;;;;12.95;10.18;;;11.20;83.00;;;;;;5120593;28;20645;-82
2021/11/02 11:32:58;;;;;;;15.70;10.30;;;11.20;82.80;;;;;;5118219;28;20179;-83
2021/11/02 11:35:25;;;;;;;13.10;9.90;;;11.30;83.00;;;;;;5122705;28;20661;-82
2021/11/02 11:37:53;;;;;;;18.30;12.07;;;11.30;83.10;;;;;;5123467;28;20170;-82
2021/11/02 11:40:24;;;;;;;14.77;10.15;;;11.30;82.80;;;;;;5123897;28;20171;-82
2021/11/02 11:42:56;;;;;;;13.98;10.07;;;11.40;82.80;;;;;;5120796;28;20179;-82
2021/11/02 11:45:30;;;;;;;14.50;10.65;;;11.50;82.90;;;;;;5103952;28;20191;-82
2021/11/02 11:48:26;;;;;;;15.45;11.27;;;11.50;83.10;;;;;;5104197;28;20187;-82
2021/11/02 11:50:53;;;;;;;25.65;11.73;;;11.40;83.20;;;;;;5102869;28;20643;-82
2021/11/02 11:53:21;;;;;;;16.77;11.27;;;11.50;83.40;;;;;;5101661;28;20180;-83
2021/11/02 11:56:08;;;;;;;14.75;11.38;;;11.60;83.30;;;;;;5107202;28;20218;-83
2021/11/02 11:58:35;;;;;;;14.27;10.10;;;11.70;82.70;;;;;;5105168;28;20186;-83
2021/11/02 12:01:24;;;;;;;16.35;11.70;;;11.80;82.30;;;;;;5101098;28;20175;-82
2021/11/02 12:04:18;;;;;;;14.18;10.30;;;11.90;81.80;;;;;;5102551;28;20210;-83
2021/11/02 12:06:59;;;;;;;13.70;10.45;;;11.90;81.10;;;;;;5100566;28;20198;-83
2021/11/02 12:09:26;;;;;;;19.85;11.75;;;12.00;80.90;;;;;;5101978;28;20284;-83
2021/11/02 12:12:00;;;;;;;17.08;12.23;;;12.00;80.60;;;;;;5103102;28;20685;-82
2021/11/02 12:14:27;;;;;;;21.85;12.93;;;12.00;80.10;;;;;;5122676;28;20187;-83
2021/11/02 12:17:03;;;;;;;16.23;12.80;;;12.00;79.90;;;;;;5123320;27;20191;-83
2021/11/02 12:19:38;;;;;;;20.05;11.77;;;12.00;79.80;;;;;;5122214;28;20174;-83
2021/11/02 12:22:12;;;;;;;15.05;10.25;;;11.90;80.00;;;;;;5123115;28;20172;-83
2021/11/02 12:24:39;;;;;;;14.88;11.02;;;11.90;80.20;;;;;;5121406;28;20195;-83
2021/11/02 12:27:21;;;;;;;249.43;38.80;;;12.10;80.70;;;;;;5106273;28;20180;-83
2021/11/02 12:29:49;;;;;;;162.18;27.98;;;12.20;80.80;;;;;;5121644;28;20183;-83
2021/11/02 12:32:17;;;;;;;12.30;8.90;;;12.30;80.80;;;;;;5130168;28;20231;-82
2021/11/02 12:34:53;;;;;;;12.20;8.73;;;12.20;80.50;;;;;;5115981;28;20266;-82
2021/11/02 12:37:20;;;;;;;10.90;7.65;;;12.10;81.00;;;;;;5134459;28;20238;-83
2021/11/02 12:39:47;;;;;;;11.52;9.18;;;12.00;80.20;;;;;;5133798;28;20188;-83
2021/11/02 12:42:20;;;;;;;11.93;7.05;;;12.00;80.40;;;;;;5134719;28;20171;-83
2021/11/02 12:44:46;;;;;;;8.73;7.13;;;12.00;80.50;;;;;;5114397;28;20245;-82
2021/11/02 12:47:20;;;;;;;7.45;5.90;;;11.90;80.20;;;;;;5113225;28;20202;-83
2021/11/02 12:49:49;;;;;;;6.65;5.65;;;11.70;79.80;;;;;;5109789;28;20229;-82
2021/11/02 12:52:18;;;;;;;5.55;4.50;;;11.90;80.00;;;;;;5098365;28;20542;-83
2021/11/02 12:54:59;;;;;;;9.32;5.00;;;11.80;79.50;;;;;;5096913;28;20199;-83
2021/11/02 12:57:35;;;;;;;6.63;5.60;;;11.90;79.60;;;;;;5098160;28;20199;-83
2021/11/02 13:00:06;;;;;;;6.68;5.20;;;11.80;79.30;;;;;;5097452;28;20187;-83
2021/11/02 13:02:37;;;;;;;5.25;4.75;;;11.80;79.40;;;;;;5096484;28;20192;-82
2021/11/02 13:05:23;;;;;;;5.03;4.63;;;11.80;79.40;;;;;;5096642;28;20291;-83
2021/11/02 13:08:01;;;;;;;5.57;4.68;;;11.70;79.50;;;;;;5096282;28;20172;-82
2021/11/02 13:10:31;;;;;;;5.47;4.60;;;11.80;79.60;;;;;;5096306;28;20187;-82
2021/11/02 13:13:08;;;;;;;5.13;4.05;;;11.70;79.40;;;;;;5107473;28;20214;-83
2021/11/02 13:15:57;;;;;;;4.40;4.00;;;11.80;79.30;;;;;;5117161;28;20657;-83
2021/11/02 13:18:39;;;;;;;5.63;4.03;;;11.70;78.80;;;;;;5119567;28;20182;-83
2021/11/02 13:21:19;;;;;;;3.60;3.30;;;11.80;78.60;;;;;;5116941;28;20175;-83
2021/11/02 13:23:51;;;;;;;6.68;3.90;;;11.70;78.40;;;;;;5118397;28;20239;-83
2021/11/02 13:26:22;;;;;;;8.88;3.80;;;11.60;77.90;;;;;;5119474;28;20690;-83
2021/11/02 13:28:49;;;;;;;10.30;6.10;;;11.60;78.20;;;;;;5118104;28;20185;-82
2021/11/02 13:31:48;;;;;;;5.43;4.13;;;11.70;78.90;;;;;;5100724;28;20198;-82
2021/11/02 13:34:37;;;;;;;4.65;3.33;;;11.80;79.50;;;;;;5105555;28;20217;-83
2021/11/02 13:37:24;;;;;;;12.85;5.75;;;11.80;79.50;;;;;;5117198;28;20228;-83
2021/11/02 13:39:57;;;;;;;3.88;3.42;;;12.00;79.80;;;;;;5116610;28;20171;-83
2021/11/02 13:42:49;;;;;;;5.00;3.88;;;12.10;79.70;;;;;;5116770;28;20179;-83
2021/11/02 13:45:18;;;;;;;39.78;13.88;;;12.10;79.40;;;;;;5075059;28;20212;-82
2021/11/02 13:47:44;;;;;;;5.35;3.28;;;12.40;79.50;;;;;;5077972;28;20175;-82
2021/11/02 13:50:10;;;;;;;2.97;2.67;;;12.30;79.10;;;;;;5076831;28;20235;-83
2021/11/02 13:52:37;;;;;;;2.88;2.60;;;12.40;78.70;;;;;;5076621;28;20440;-82
2021/11/02 13:55:04;;;;;;;4.45;3.50;;;12.40;78.20;;;;;;5075075;28;20570;-83
2021/11/02 13:57:29;;;;;;;4.22;3.72;;;12.40;78.10;;;;;;5075430;28;20205;-83
2021/11/02 13:59:55;;;;;;;4.70;3.03;;;12.50;78.20;;;;;;5075185;28;20707;-83
2021/11/02 14:02:23;;;;;;;3.80;3.47;;;12.40;78.00;;;;;;5077669;28;20221;-83
2021/11/02 14:04:50;;;;;;;3.78;2.90;;;12.30;77.90;;;;;;5078748;28;20191;-83
2021/11/02 14:07:22;;;;;;;3.72;3.42;;;12.30;78.10;;;;;;5080885;28;20191;-82
2021/11/02 14:09:52;;;;;;;6.60;3.25;;;12.40;78.20;;;;;;5084024;28;20252;-82
2021/11/02 14:12:30;;;;;;;6.90;3.85;;;12.60;78.40;;;;;;5093964;28;20187;-83
2021/11/02 14:15:11;;;;;;;4.57;3.50;;;12.80;78.40;;;;;;5121499;28;20552;-83
2021/11/02 14:17:42;;;;;;;3.75;3.45;;;12.80;78.00;;;;;;5122071;28;20199;-82
2021/11/02 14:20:30;;;;;;;5.68;4.07;;;12.70;78.10;;;;;;5120279;28;20183;-83
2021/11/02 14:22:56;;;;;;;3.95;3.55;;;12.60;78.10;;;;;;5104642;28;20250;-83
2021/11/02 14:25:34;;;;;;;5.03;3.67;;;12.60;78.40;;;;;;5101491;28;20256;-82
2021/11/02 14:28:00;;;;;;;5.10;3.78;;;12.90;78.00;;;;;;5117054;28;20175;-82
2021/11/02 14:30:32;;;;;;;4.28;3.60;;;12.90;77.40;;;;;;5117496;28;20179;-82
2021/11/02 14:32:59;;;;;;;7.82;4.85;;;12.90;77.90;;;;;;5120805;28;20252;-82
2021/11/02 14:35:48;;;;;;;7.40;4.70;;;12.60;76.30;;;;;;5120791;28;20199;-83
2021/11/02 14:38:25;;;;;;;4.75;4.35;;;12.80;76.90;;;;;;5102823;28;20219;-83
2021/11/02 14:40:59;;;;;;;5.25;4.75;;;12.70;77.10;;;;;;5120603;28;20200;-83
2021/11/02 14:43:32;;;;;;;6.93;5.22;;;12.80;77.50;;;;;;5121327;28;20202;-83
2021/11/02 14:46:03;;;;;;;10.98;4.95;;;12.90;77.80;;;;;;5121091;27;20195;-83
2021/11/02 14:48:44;;;;;;;9.20;5.00;;;12.80;77.60;;;;;;5119602;28;20171;-83
2021/11/02 14:51:13;;;;;;;9.20;5.38;;;12.90;78.20;;;;;;5119921;28;20175;-83
2021/11/02 14:53:42;;;;;;;9.43;6.15;;;13.00;78.70;;;;;;5119208;28;20195;-83
2021/11/02 14:56:14;;;;;;;6.00;5.40;;;13.10;78.10;;;;;;5120909;28;20213;-82
2021/11/02 14:58:40;;;;;;;9.88;5.07;;;13.10;77.70;;;;;;5121326;28;20171;-83
2021/11/02 15:01:26;;;;;;;6.10;5.50;;;13.00;77.70;;;;;;5119735;28;20209;-83
2021/11/02 15:04:01;;;;;;;9.35;6.70;;;13.00;77.90;;;;;;5119817;28;20467;-83
2021/11/02 15:06:48;;;;;;;7.72;6.07;;;12.90;77.60;;;;;;5119443;28;20167;-83
2021/11/02 15:09:18;;;;;;;9.00;5.93;;;12.80;77.20;;;;;;5120950;28;20163;-83
2021/11/02 15:11:45;;;;;;;9.95;7.07;;;12.70;77.30;;;;;;5119870;28;20183;-83
2021/11/02 15:14:20;;;;;;;8.77;6.75;;;12.60;77.30;;;;;;5098346;28;20199;-82
2021/11/02 15:16:53;;;;;;;7.72;6.93;;;12.30;77.20;;;;;;5081408;28;20297;-83
2021/11/02 15:19:22;;;;;;;6.90;6.15;;;12.30;77.70;;;;;;5100343;28;20231;-83
2021/11/02 15:21:57;;;;;;;9.80;6.75;;;12.50;77.50;;;;;;5098302;28;20184;-83
2021/11/02 15:24:29;;;;;;;14.02;7.15;;;12.30;77.50;;;;;;5099699;28;20187;-83
2021/11/02 15:27:01;;;;;;;10.40;7.60;;;12.20;78.00;;;;;;5099675;28;20209;-82
2021/11/02 15:29:30;;;;;;;11.23;7.80;;;12.10;78.50;;;;;;5098194;28;20176;-82
2021/11/02 15:32:02;;;;;;;9.23;6.78;;;12.10;79.00;;;;;;5099077;28;20772;-82
2021/11/02 15:34:44;;;;;;;10.32;7.82;;;12.00;79.20;;;;;;5097335;28;20727;-82
2021/11/02 15:37:13;;;;;;;10.68;7.80;;;11.90;79.50;;;;;;5097622;28;20616;-82
2021/11/02 15:39:40;;;;;;;10.10;7.95;;;11.90;79.80;;;;;;5098159;28;20172;-82
2021/11/02 15:42:24;;;;;;;12.05;8.18;;;11.90;80.00;;;;;;5097809;28;20176;-82
2021/11/02 15:44:56;;;;;;;11.85;8.45;;;11.90;80.80;;;;;;5098482;28;20191;-82
2021/11/02 15:47:24;;;;;;;9.30;7.72;;;12.00;80.10;;;;;;5098090;28;20545;-82
2021/11/02 15:49:58;;;;;;;13.27;7.75;;;11.80;80.00;;;;;;5099691;28;20666;-83
2021/11/02 15:52:32;;;;;;;10.70;7.70;;;11.80;80.40;;;;;;5098758;28;20240;-82
2021/11/02 15:55:08;;;;;;;16.33;9.75;;;11.80;80.70;;;;;;5097869;28;20282;-82
2021/11/02 15:57:47;;;;;;;17.20;8.55;;;11.70;80.70;;;;;;5098766;28;20195;-84
2021/11/02 16:00:15;;;;;;;20.02;11.88;;;11.60;80.90;;;;;;5097250;28;20526;-83
2021/11/02 16:02:44;;;;;;;20.60;10.90;;;11.70;81.20;;;;;;5096988;28;20172;-84
2021/11/02 16:05:11;;;;;;;15.13;9.15;;;11.70;81.10;;;;;;5097743;28;20217;-83
2021/11/02 16:07:37;;;;;;;15.45;9.88;;;11.70;81.30;;;;;;5098245;28;20658;-82
2021/11/02 16:10:05;;;;;;;18.77;10.40;;;11.60;81.30;;;;;;5094042;28;20176;-83
2021/11/02 16:12:35;;;;;;;18.60;11.57;;;11.70;81.40;;;;;;5093891;28;20203;-83
2021/11/02 16:15:15;;;;;;;16.83;10.85;;;11.60;81.20;;;;;;5097394;28;20200;-82
2021/11/02 16:17:44;;;;;;;15.52;10.50;;;11.40;81.40;;;;;;5097816;28;20293;-82
2021/11/02 16:20:32;;;;;;;16.10;10.88;;;11.40;81.90;;;;;;5098473;28;20168;-83
2021/11/02 16:23:01;;;;;;;18.90;12.13;;;11.30;82.20;;;;;;5097078;28;20184;-83
2021/11/02 16:25:33;;;;;;;20.15;12.25;;;11.30;82.40;;;;;;5097280;28;20551;-83
2021/11/02 16:28:12;;;;;;;25.83;13.45;;;11.20;82.50;;;;;;5098445;28;20246;-83
2021/11/02 16:30:54;;;;;;;21.80;14.82;;;11.20;82.80;;;;;;5099685;28;20251;-83
2021/11/02 16:33:32;;;;;;;17.40;11.13;;;11.40;83.10;;;;;;5098307;28;20157;-83
2021/11/02 16:35:58;;;;;;;26.38;12.68;;;11.20;83.00;;;;;;5097266;28;20681;-83
2021/11/02 16:38:43;;;;;;;25.83;13.77;;;11.20;83.20;;;;;;5097774;28;20575;-83
2021/11/02 16:41:28;;;;;;;22.58;13.85;;;11.20;83.40;;;;;;5098093;28;20198;-83
2021/11/02 16:44:00;;;;;;;22.70;15.15;;;11.30;83.70;;;;;;5079839;28;20204;-83
2021/11/02 16:46:33;;;;;;;25.08;15.65;;;11.10;83.80;;;;;;5096908;28;20600;-83
2021/11/02 16:49:04;;;;;;;29.73;15.73;;;11.20;83.90;;;;;;5097247;28;20175;-83
2021/11/02 16:51:52;;;;;;;20.63;14.43;;;11.30;84.10;;;;;;5096876;28;20175;-83
2021/11/02 16:54:28;;;;;;;22.95;14.80;;;11.10;84.10;;;;;;5097501;28;20252;-83
2021/11/02 16:57:16;;;;;;;19.73;12.90;;;11.20;84.40;;;;;;5095488;28;20207;-83
2021/11/02 16:59:59;;;;;;;23.55;12.23;;;11.10;84.40;;;;;;5074889;28;20176;-82
2021/11/02 17:02:39;;;;;;;23.38;14.68;;;11.10;84.50;;;;;;5074519;28;20185;-83
2021/11/02 17:05:23;;;;;;;31.67;17.17;;;11.00;84.40;;;;;;5074051;28;20625;-83
2021/11/02 17:08:04;;;;;;;25.02;16.90;;;11.00;84.50;;;;;;5076792;28;20183;-82
2021/11/02 17:10:37;;;;;;;29.20;16.40;;;11.00;84.60;;;;;;5084815;28;20200;-82
2021/11/02 17:13:14;;;;;;;24.73;18.33;;;10.90;84.70;;;;;;5096493;28;20258;-83
2021/11/02 17:16:10;;;;;;;29.35;15.95;;;11.00;84.70;;;;;;5101065;28;20171;-82
2021/11/02 17:18:45;;;;;;;29.40;16.92;;;10.90;84.70;;;;;;5084722;28;20168;-82
2021/11/02 17:21:13;;;;;;;24.95;15.75;;;10.90;84.80;;;;;;5079113;28;20191;-82
2021/11/02 17:23:39;;;;;;;30.83;16.20;;;10.90;84.80;;;;;;5077296;28;20208;-83
2021/11/02 17:26:07;;;;;;;36.88;17.20;;;11.00;84.60;;;;;;5082279;28;20187;-83
2021/11/02 17:28:34;;;;;;;28.98;17.40;;;11.00;84.50;;;;;;5093346;28;20211;-82
2021/11/02 17:31:00;;;;;;;27.10;16.92;;;10.90;84.60;;;;;;5088523;28;20183;-82
2021/11/02 17:33:27;;;;;;;30.55;16.98;;;10.80;84.70;;;;;;5081010;28;20217;-81
2021/11/02 17:35:54;;;;;;;27.52;15.93;;;10.80;84.70;;;;;;5099833;28;20246;-82
2021/11/02 17:38:23;;;;;;;36.67;16.85;;;10.90;84.50;;;;;;5093196;28;20180;-82
2021/11/02 17:40:49;;;;;;;25.20;17.05;;;10.90;84.10;;;;;;5083413;28;20172;-81
2021/11/02 17:43:15;;;;;;;27.55;15.43;;;10.80;83.70;;;;;;5097788;28;20699;-82
2021/11/02 17:45:42;;;;;;;29.60;15.90;;;10.80;83.50;;;;;;5105670;28;20263;-81
2021/11/02 17:48:13;;;;;;;27.63;15.77;;;10.60;83.60;;;;;;5107680;28;20402;-81
2021/11/02 17:50:39;;;;;;;23.25;14.30;;;10.60;83.70;;;;;;5112995;28;20160;-81
2021/11/02 17:53:05;;;;;;;28.83;17.40;;;10.60;83.80;;;;;;5116340;28;20168;-83
2021/11/02 17:55:31;;;;;;;22.97;15.67;;;10.60;83.50;;;;;;5115245;28;20282;-82
2021/11/02 17:57:59;;;;;;;32.13;17.63;;;10.50;83.50;;;;;;5114417;28;20486;-83
2021/11/02 18:00:27;;;;;;;30.20;16.23;;;10.40;83.50;;;;;;5114488;28;20410;-83